Memphis, MO

4:19 AM CST on December 04, 2016 (GMT -0600)
APRSWXNET | | Change Station

Elev 931 ft 40.52 °N, 92.52 °W | Updated 26 minutes ago

Overcast
Overcast
35 °F
Feels Like 35 °F
N
1
Wind Variable Wind from South
Gusts 0.0 mph

Today
High -- | Low -- °F
--% Chance of Precip.
Yesterday
High -- | Low -- °F
Precip. -- in
Pressure 30.12 in
Visibility 4.0 miles
Clouds Few 800 ft
Few 1200 ft
Overcast 2700 ft
Windchill 35 °F
Dew Point 33 °F
Humidity 94%
Rainfall in
Snow Depth Not available.
7:16 AM 4:42 PM
Waxing Crescent, 21% visible
METAR KIRK 040955Z AUTO 13008KT 4SM UP BR FEW008 FEW012 OVC027 02/01 A3009 RMK AO2 UPE03B27 SLP199 P0003 T00170011
Pressure 30.12 in
Visibility 4.0 miles
Clouds Few 800 ft
Few 1200 ft
Overcast 2700 ft
Windchill 35 °F
Dew Point 33 °F
Humidity 94%
Rainfall in
Snow Depth Not available.
7:16 AM 4:42 PM
Waxing Crescent, 21% visible
METAR KIRK 040955Z AUTO 13008KT 4SM UP BR FEW008 FEW012 OVC027 02/01 A3009 RMK AO2 UPE03B27 SLP199 P0003 T00170011

10-Day Weather Forecast

Almanac

Astronomy

Dec. 04, 2016 Rise Set
Actual Time
Civil Twilight
Nautical Twilight
Astronomical Twilight
Moon
Length of Visible Light
Length of Day
Tomorrow will be .
, % of the Moon is Illuminated

Today's Extremes

State Highs State Lows

Community

WunderPhotos

Upload Photos

1,955,591 photos uploaded!

WunderBlog® & News

Nearby

Air Quality

  Air Quality AQ Index Pollutant
Not available.

Snow Depth

Station Depth Elevation

Earthquake Activity

City Distance Mag. Time & Date
Minimum magnitude displayed is 2.5.

Coastal Water Temperatures

Place Temperature

Stations

Nearby Weather Stations

Station Location Temp. Windchill Dew Point Humidity Wind Precip. Elev Updated Type
                   

Watches & Warnings

There are currently no watches in effect.